createdAt,value
2017-09-22T00:01:04.163Z,13.20
2017-09-22T00:03:32.322Z,13.00
2017-09-22T00:06:00.557Z,13.00
2017-09-22T00:08:28.709Z,13.00
2017-09-22T00:10:56.939Z,13.00
2017-09-22T00:13:25.115Z,13.00
2017-09-22T00:15:53.420Z,12.90
2017-09-22T00:18:21.605Z,12.90
2017-09-22T00:20:49.776Z,12.90
2017-09-22T00:23:17.970Z,12.60
2017-09-22T00:25:46.138Z,12.60
2017-09-22T00:28:14.316Z,12.60
2017-09-22T00:30:42.485Z,12.60
2017-09-22T00:33:12.173Z,12.40
2017-09-22T00:35:40.352Z,12.40
2017-09-22T00:38:08.510Z,12.40
2017-09-22T00:40:36.677Z,12.00
2017-09-22T00:43:04.838Z,11.70
2017-09-22T00:45:33.778Z,11.80
2017-09-22T00:48:01.946Z,11.80
2017-09-22T00:50:30.110Z,12.00
2017-09-22T00:52:58.297Z,11.80
2017-09-22T00:55:26.467Z,11.90
2017-09-22T00:57:54.655Z,12.10
2017-09-22T01:00:22.802Z,11.90
2017-09-22T01:02:50.971Z,11.80
2017-09-22T01:05:19.138Z,11.70
2017-09-22T01:07:47.333Z,11.50
2017-09-22T01:10:15.565Z,11.70
2017-09-22T01:12:44.514Z,11.50
2017-09-22T01:15:12.698Z,11.50
2017-09-22T01:17:40.866Z,11.50
2017-09-22T01:20:10.649Z,11.90
2017-09-22T01:22:38.826Z,11.90
2017-09-22T01:25:07.003Z,11.80
2017-09-22T01:27:35.322Z,11.30
2017-09-22T01:30:04.233Z,11.30
2017-09-22T01:32:32.429Z,11.30
2017-09-22T01:35:00.605Z,11.50
2017-09-22T01:37:28.781Z,11.50
2017-09-22T01:39:58.005Z,11.30
2017-09-22T01:42:26.170Z,11.60
2017-09-22T01:44:54.338Z,11.60
2017-09-22T01:47:22.506Z,11.40
2017-09-22T01:49:50.673Z,11.20
2017-09-22T01:52:18.853Z,11.10
2017-09-22T01:54:47.026Z,11.10
2017-09-22T01:57:15.201Z,11.30
2017-09-22T01:59:43.383Z,11.50
2017-09-22T02:02:11.542Z,11.60
2017-09-22T02:04:39.713Z,11.60
2017-09-22T02:07:07.885Z,11.70
2017-09-22T02:09:37.589Z,11.70
2017-09-22T02:12:05.746Z,11.70
2017-09-22T02:14:33.921Z,11.40
2017-09-22T02:17:02.067Z,11.50
2017-09-22T02:19:31.006Z,11.30
2017-09-22T02:21:59.179Z,11.20
2017-09-22T02:24:27.352Z,11.10
2017-09-22T02:26:55.518Z,11.00
2017-09-22T02:29:23.687Z,10.50
2017-09-22T02:31:51.889Z,10.90
2017-09-22T02:34:20.062Z,11.00
2017-09-22T02:36:48.242Z,11.00
2017-09-22T02:39:16.481Z,10.90
2017-09-22T02:41:44.636Z,10.90
2017-09-22T02:44:12.835Z,11.00
2017-09-22T02:46:40.984Z,11.10
2017-09-22T02:49:09.926Z,11.10
2017-09-22T02:51:38.106Z,11.10
2017-09-22T02:54:06.282Z,10.90
2017-09-22T02:56:34.461Z,11.00
2017-09-22T02:59:02.634Z,11.20
2017-09-22T03:01:30.897Z,10.80
2017-09-22T03:03:59.045Z,10.80
2017-09-22T03:06:27.201Z,10.90
2017-09-22T03:08:56.139Z,11.10
2017-09-22T03:11:24.403Z,11.10
2017-09-22T03:13:52.568Z,11.10
2017-09-22T03:16:20.722Z,10.90
2017-09-22T03:18:48.886Z,10.90
2017-09-22T03:21:17.058Z,10.90
2017-09-22T03:23:45.215Z,10.90
2017-09-22T03:26:13.449Z,10.90
2017-09-22T03:28:42.498Z,10.90
2017-09-22T03:31:10.670Z,10.70
2017-09-22T03:33:38.839Z,10.70
2017-09-22T03:36:07.766Z,10.50
2017-09-22T03:38:35.957Z,10.50
2017-09-22T03:41:04.132Z,10.60
2017-09-22T03:43:32.293Z,10.20
2017-09-22T03:46:01.239Z,10.60
2017-09-22T03:48:30.172Z,10.20
2017-09-22T03:50:58.358Z,10.20
2017-09-22T03:53:26.534Z,10.30
2017-09-22T03:55:54.702Z,10.30
2017-09-22T03:58:22.878Z,10.40
2017-09-22T04:00:51.810Z,10.50
2017-09-22T04:03:20.758Z,10.60
2017-09-22T04:05:48.931Z,10.50
2017-09-22T04:08:17.095Z,10.70
2017-09-22T04:10:45.275Z,10.70
2017-09-22T04:13:13.429Z,10.70
2017-09-22T04:15:41.609Z,10.70
2017-09-22T04:18:10.780Z,10.30
2017-09-22T04:20:39.709Z,10.00
2017-09-22T04:23:07.887Z,9.90
2017-09-22T04:25:36.059Z,10.20
2017-09-22T04:28:04.248Z,10.10
2017-09-22T04:30:32.439Z,10.40
2017-09-22T04:33:00.613Z,10.30
2017-09-22T04:35:28.776Z,10.40
2017-09-22T04:44:42.479Z,9.90
2017-09-22T04:47:11.393Z,10.40
2017-09-22T04:49:39.558Z,10.30
2017-09-22T04:52:07.732Z,10.50
2017-09-22T04:54:35.903Z,10.50
2017-09-22T04:57:05.857Z,10.60
2017-09-22T04:59:34.040Z,10.50
2017-09-22T05:02:02.230Z,10.50
2017-09-22T05:04:30.413Z,10.50
2017-09-22T05:06:58.562Z,10.50
2017-09-22T05:09:26.756Z,10.10
2017-09-22T05:11:55.022Z,9.90
2017-09-22T05:14:23.194Z,9.80
2017-09-22T05:16:51.402Z,10.00
2017-09-22T05:19:20.371Z,10.50
2017-09-22T05:21:48.517Z,10.40
2017-09-22T05:24:16.713Z,10.60
2017-09-22T05:26:44.892Z,10.70
2017-09-22T05:29:13.439Z,10.50
2017-09-22T05:31:41.609Z,10.70
2017-09-22T05:34:09.776Z,10.70
2017-09-22T05:36:38.027Z,10.20
2017-09-22T05:39:06.951Z,10.30
2017-09-22T05:41:35.138Z,10.30
2017-09-22T05:44:04.085Z,9.90
2017-09-22T05:46:33.050Z,9.70
2017-09-22T05:49:01.198Z,9.60
2017-09-22T05:51:29.386Z,9.80
2017-09-22T05:53:57.563Z,9.70
2017-09-22T05:56:25.746Z,9.90
2017-09-22T05:58:53.927Z,9.70
2017-09-22T06:01:22.099Z,10.10
2017-09-22T06:03:50.271Z,10.10
2017-09-22T06:06:18.496Z,10.20
2017-09-22T06:08:46.646Z,10.00
2017-09-22T06:11:14.819Z,10.00
2017-09-22T06:13:43.000Z,9.90
2017-09-22T06:16:11.178Z,9.90
2017-09-22T06:18:39.381Z,9.70
2017-09-22T06:21:08.570Z,9.60
2017-09-22T06:23:36.750Z,9.70
2017-09-22T06:26:05.931Z,10.10
2017-09-22T06:28:35.073Z,10.10
2017-09-22T06:31:03.518Z,10.00
2017-09-22T06:33:33.224Z,10.40
2017-09-22T06:36:01.381Z,10.40
2017-09-22T06:38:29.571Z,10.60
2017-09-22T06:40:57.942Z,10.80
2017-09-22T06:43:26.433Z,10.80
2017-09-22T06:45:54.606Z,11.00
2017-09-22T06:48:22.795Z,11.00
2017-09-22T06:50:51.006Z,11.20
2017-09-22T06:53:19.203Z,11.30
2017-09-22T06:55:48.338Z,11.00
2017-09-22T06:58:16.542Z,11.10
2017-09-22T07:00:44.727Z,11.00
2017-09-22T07:03:12.912Z,11.20
2017-09-22T07:05:42.868Z,11.50
2017-09-22T07:08:11.096Z,11.50
2017-09-22T07:10:40.050Z,11.40
2017-09-22T07:13:08.983Z,11.60
2017-09-22T07:15:37.933Z,11.50
2017-09-22T07:18:06.095Z,11.50
2017-09-22T07:20:34.325Z,11.80
2017-09-22T07:23:03.273Z,12.20
2017-09-22T07:25:31.481Z,12.20
2017-09-22T07:27:59.706Z,12.30
2017-09-22T07:30:27.897Z,12.40
2017-09-22T07:32:56.078Z,12.40
2017-09-22T07:35:24.255Z,12.50
2017-09-22T07:37:52.493Z,12.60
2017-09-22T07:40:20.660Z,12.50
2017-09-22T07:42:48.843Z,12.60
2017-09-22T07:45:17.024Z,12.50
2017-09-22T07:47:45.208Z,12.70
2017-09-22T07:50:14.192Z,12.80
2017-09-22T07:52:42.352Z,12.80
2017-09-22T07:55:11.354Z,13.00
2017-09-22T07:57:39.509Z,13.20
2017-09-22T08:00:07.720Z,13.10
2017-09-22T08:02:35.888Z,13.20
2017-09-22T08:05:04.082Z,13.30
2017-09-22T08:07:32.236Z,13.40
2017-09-22T08:10:01.422Z,13.40
2017-09-22T08:12:29.614Z,13.50
2017-09-22T08:14:58.743Z,13.60
2017-09-22T08:17:26.910Z,13.70
2017-09-22T08:19:55.849Z,13.70
2017-09-22T08:22:24.033Z,13.60
2017-09-22T08:24:52.200Z,13.70
2017-09-22T08:27:20.409Z,13.80
2017-09-22T08:29:48.569Z,13.60
2017-09-22T08:32:16.730Z,13.60
2017-09-22T08:34:44.912Z,13.70
2017-09-22T08:37:13.881Z,13.90
2017-09-22T08:39:42.065Z,13.90
2017-09-22T08:42:10.259Z,14.10
2017-09-22T08:44:38.442Z,14.00
2017-09-22T08:47:06.700Z,14.10
2017-09-22T08:49:35.895Z,14.20
2017-09-22T08:52:04.062Z,14.30
2017-09-22T08:54:32.243Z,14.50
2017-09-22T08:57:01.218Z,14.60
2017-09-22T08:59:29.490Z,14.60
2017-09-22T09:01:57.678Z,14.60
2017-09-22T09:04:25.832Z,14.60
2017-09-22T09:06:54.038Z,14.80
2017-09-22T09:09:22.203Z,14.90
2017-09-22T09:11:50.391Z,14.90
2017-09-22T09:14:18.570Z,15.00
2017-09-22T09:16:46.801Z,15.10
2017-09-22T09:19:15.908Z,15.20
2017-09-22T09:21:44.092Z,15.20
2017-09-22T09:24:12.291Z,15.30
2017-09-22T09:26:40.492Z,15.30
2017-09-22T09:29:08.672Z,15.50
2017-09-22T09:31:37.608Z,15.50
2017-09-22T09:34:05.786Z,15.50
2017-09-22T09:36:33.975Z,15.60
2017-09-22T09:39:03.129Z,15.70
2017-09-22T09:41:31.337Z,15.80
2017-09-22T09:43:59.519Z,15.80
2017-09-22T09:46:27.709Z,15.90
2017-09-22T09:48:55.885Z,16.10
2017-09-22T09:51:24.090Z,16.10
2017-09-22T09:53:53.058Z,16.10
2017-09-22T09:56:22.726Z,16.10
2017-09-22T09:58:50.893Z,16.10
2017-09-22T10:01:19.097Z,16.40
2017-09-22T10:03:47.277Z,16.40
2017-09-22T10:06:15.458Z,16.60
2017-09-22T10:08:44.605Z,16.50
2017-09-22T10:11:12.808Z,16.50
2017-09-22T10:13:40.998Z,16.70
2017-09-22T10:16:09.202Z,16.70
2017-09-22T10:18:37.389Z,16.60
2017-09-22T10:21:05.582Z,16.60
2017-09-22T10:23:33.804Z,16.70
2017-09-22T10:26:02.858Z,16.80
2017-09-22T10:28:31.043Z,16.70
2017-09-22T10:30:59.204Z,16.90
2017-09-22T10:33:28.321Z,16.90
2017-09-22T10:35:56.474Z,16.90
2017-09-22T10:38:25.689Z,17.00
2017-09-22T10:40:53.872Z,17.00
2017-09-22T10:43:22.071Z,17.10
2017-09-22T10:45:50.263Z,17.20
2017-09-22T10:48:19.205Z,17.30
2017-09-22T10:50:47.387Z,17.30
2017-09-22T10:53:15.605Z,17.50
2017-09-22T10:55:43.808Z,17.50
2017-09-22T10:58:12.008Z,17.50
2017-09-22T11:00:40.229Z,17.50
2017-09-22T11:03:09.177Z,17.60
2017-09-22T11:05:37.359Z,17.60
2017-09-22T11:08:05.534Z,17.70
2017-09-22T11:10:33.728Z,17.70
2017-09-22T11:13:01.917Z,17.70
2017-09-22T11:15:30.979Z,17.80
2017-09-22T11:17:59.140Z,17.80
2017-09-22T11:20:27.337Z,17.90
2017-09-22T11:22:55.519Z,18.10
2017-09-22T11:25:24.465Z,18.00
2017-09-22T11:27:52.745Z,18.00
2017-09-22T11:30:20.917Z,18.10
2017-09-22T11:32:49.193Z,18.30
2017-09-22T11:35:17.391Z,18.40
2017-09-22T11:37:45.592Z,18.40
2017-09-22T11:40:14.565Z,18.40
2017-09-22T11:42:42.815Z,18.40
2017-09-22T11:45:11.014Z,18.60
2017-09-22T11:47:39.172Z,18.70
2017-09-22T11:50:07.734Z,18.80
2017-09-22T11:52:36.109Z,18.90
2017-09-22T11:55:05.204Z,18.90
2017-09-22T11:57:33.370Z,19.00
2017-09-22T12:00:01.587Z,19.00
2017-09-22T12:02:29.767Z,19.00
2017-09-22T12:04:58.016Z,19.00
2017-09-22T12:07:26.192Z,19.00
2017-09-22T12:09:54.377Z,18.90
2017-09-22T12:12:23.555Z,19.00
2017-09-22T12:14:51.740Z,19.10
2017-09-22T12:17:19.911Z,19.20
2017-09-22T12:19:48.148Z,19.30
2017-09-22T12:22:17.085Z,19.40
2017-09-22T12:24:45.280Z,19.40
2017-09-22T12:27:15.479Z,19.50
2017-09-22T12:29:43.739Z,19.60
2017-09-22T12:32:12.961Z,19.60
2017-09-22T12:34:41.157Z,19.60
2017-09-22T12:37:09.381Z,19.70
2017-09-22T12:39:37.537Z,19.70
2017-09-22T12:42:05.864Z,19.70
2017-09-22T12:44:34.407Z,19.60
2017-09-22T12:47:02.595Z,19.70
2017-09-22T12:49:30.785Z,19.70
2017-09-22T12:51:58.957Z,19.90
2017-09-22T12:54:27.132Z,20.00
2017-09-22T12:56:55.305Z,20.10
2017-09-22T12:59:23.494Z,20.20
2017-09-22T13:01:51.673Z,20.30
2017-09-22T13:04:20.147Z,20.60
2017-09-22T13:06:48.568Z,20.80
2017-09-22T13:09:17.532Z,22.20
2017-09-22T13:11:45.722Z,22.20
2017-09-22T13:14:14.671Z,23.40
2017-09-22T13:16:43.857Z,23.40
2017-09-22T13:19:12.061Z,24.20
2017-09-22T13:21:40.254Z,24.70
2017-09-22T13:24:08.477Z,25.40
2017-09-22T13:26:37.693Z,25.80
2017-09-22T13:29:05.870Z,26.90
2017-09-22T13:31:34.061Z,27.00
2017-09-22T13:34:02.244Z,27.00
2017-09-22T13:36:30.431Z,27.70
2017-09-22T13:38:59.495Z,27.80
2017-09-22T13:41:27.666Z,27.80
2017-09-22T13:43:55.845Z,28.40
2017-09-22T13:46:24.045Z,27.30
2017-09-22T13:48:52.995Z,26.90
2017-09-22T13:51:21.947Z,26.40
2017-09-22T13:53:50.111Z,26.40
2017-09-22T13:56:19.101Z,27.20
2017-09-22T13:58:48.089Z,28.40
2017-09-22T14:01:18.072Z,29.70
2017-09-22T14:03:46.249Z,29.60
2017-09-22T14:06:14.442Z,30.30
2017-09-22T14:08:42.630Z,29.40
2017-09-22T14:11:11.604Z,30.20
2017-09-22T14:13:42.796Z,29.00
2017-09-22T14:16:11.270Z,29.00
2017-09-22T14:18:40.224Z,28.80
2017-09-22T14:21:09.250Z,28.40
2017-09-22T14:23:37.448Z,28.40
2017-09-22T14:26:05.626Z,27.00
2017-09-22T14:28:33.822Z,26.00
2017-09-22T14:31:02.009Z,25.70
2017-09-22T14:33:30.213Z,24.80
2017-09-22T14:35:59.236Z,24.10
2017-09-22T14:38:27.392Z,24.00
2017-09-22T14:40:55.589Z,23.30
2017-09-22T14:43:23.758Z,22.90
2017-09-22T14:45:51.934Z,22.80
2017-09-22T14:48:20.097Z,22.70
2017-09-22T14:50:48.255Z,22.30
2017-09-22T14:53:16.619Z,22.10
2017-09-22T14:55:45.548Z,21.90
2017-09-22T14:58:13.758Z,21.80
2017-09-22T15:00:41.939Z,21.90
2017-09-22T15:03:10.125Z,21.80
2017-09-22T15:05:38.321Z,21.70
2017-09-22T15:08:07.262Z,21.40
2017-09-22T15:10:35.539Z,21.40
2017-09-22T15:13:03.811Z,21.30
2017-09-22T15:15:32.092Z,21.10
2017-09-22T15:18:00.273Z,20.90
2017-09-22T15:20:28.520Z,20.80
2017-09-22T15:22:56.699Z,20.70
2017-09-22T15:25:24.996Z,20.70
2017-09-22T15:27:53.193Z,20.60
2017-09-22T15:30:22.301Z,20.60
2017-09-22T15:32:51.239Z,20.40
2017-09-22T15:35:20.449Z,20.30
2017-09-22T15:37:48.623Z,20.40
2017-09-22T15:40:16.808Z,20.40
2017-09-22T15:42:45.080Z,20.40
2017-09-22T15:45:13.237Z,20.50
2017-09-22T15:47:41.449Z,20.60
2017-09-22T15:50:09.625Z,20.70
2017-09-22T15:52:38.053Z,20.40
2017-09-22T15:55:06.245Z,20.40
2017-09-22T15:57:34.413Z,20.40
2017-09-22T16:00:02.578Z,20.40
2017-09-22T16:02:30.777Z,20.40
2017-09-22T16:04:58.948Z,20.50
2017-09-22T16:07:27.142Z,20.70
2017-09-22T16:09:56.819Z,20.80
2017-09-22T16:12:25.035Z,20.80
2017-09-22T16:14:53.231Z,20.90
2017-09-22T16:17:22.165Z,21.00
2017-09-22T16:19:50.373Z,21.00
2017-09-22T16:22:18.554Z,21.00
2017-09-22T16:24:46.743Z,21.00
2017-09-22T16:27:14.932Z,20.80
2017-09-22T16:29:43.128Z,20.50
2017-09-22T16:32:11.312Z,20.40
2017-09-22T16:34:39.472Z,20.30
2017-09-22T16:37:07.683Z,20.00
2017-09-22T16:39:35.972Z,20.00
2017-09-22T16:42:04.901Z,19.80
2017-09-22T16:44:33.091Z,19.80
2017-09-22T16:47:01.289Z,19.90
2017-09-22T16:49:29.542Z,19.80
2017-09-22T16:51:57.749Z,19.80
2017-09-22T16:54:25.923Z,19.80
2017-09-22T16:56:54.119Z,19.60
2017-09-22T16:59:23.065Z,19.40
2017-09-22T17:01:51.282Z,19.30
2017-09-22T17:04:19.459Z,19.40
2017-09-22T17:06:48.415Z,19.40
2017-09-22T17:09:17.153Z,19.30
2017-09-22T17:11:46.077Z,19.40
2017-09-22T17:14:14.279Z,19.30
2017-09-22T17:16:42.457Z,19.20
2017-09-22T17:19:10.808Z,19.00
2017-09-22T17:21:39.048Z,19.10
2017-09-22T17:24:08.197Z,19.10
2017-09-22T17:26:37.160Z,19.10
2017-09-22T17:29:05.382Z,19.10
2017-09-22T17:31:33.596Z,18.90
2017-09-22T17:34:01.778Z,18.80
2017-09-22T17:36:29.967Z,18.80
2017-09-22T17:38:58.358Z,18.80
2017-09-22T17:41:26.660Z,18.70
2017-09-22T17:43:55.203Z,18.60
2017-09-22T17:46:23.395Z,18.60
2017-09-22T17:48:51.562Z,18.60
2017-09-22T17:51:19.749Z,18.60
2017-09-22T17:53:48.026Z,18.60
2017-09-22T17:56:16.239Z,18.50
2017-09-22T17:58:45.183Z,18.50
2017-09-22T18:01:13.384Z,18.50
2017-09-22T18:03:41.593Z,18.40
2017-09-22T18:06:09.778Z,18.40
2017-09-22T18:08:38.374Z,18.00
2017-09-22T18:11:06.563Z,17.90
2017-09-22T18:13:35.526Z,17.80
2017-09-22T18:16:04.025Z,17.80
2017-09-22T18:18:32.260Z,17.70
2017-09-22T18:21:01.220Z,17.80
2017-09-22T18:23:29.394Z,17.70
2017-09-22T18:25:57.569Z,17.60
2017-09-22T18:28:25.760Z,17.60
2017-09-22T18:30:53.960Z,17.60
2017-09-22T18:33:22.902Z,17.40
2017-09-22T18:35:51.075Z,17.40
2017-09-22T18:38:19.270Z,17.50
2017-09-22T18:40:47.448Z,17.40
2017-09-22T18:43:15.646Z,17.40
2017-09-22T18:45:43.810Z,17.10
2017-09-22T18:48:12.796Z,17.20
2017-09-22T18:50:41.014Z,17.20
2017-09-22T18:53:10.148Z,17.30
2017-09-22T18:55:38.376Z,17.40
2017-09-22T18:58:06.561Z,17.50
2017-09-22T19:00:34.763Z,17.50
2017-09-22T19:03:02.943Z,17.20
2017-09-22T19:05:31.141Z,17.20
2017-09-22T19:08:00.080Z,17.30
2017-09-22T19:10:28.250Z,17.30
2017-09-22T19:12:56.536Z,17.20
2017-09-22T19:15:24.722Z,17.30
2017-09-22T19:17:54.450Z,17.00
2017-09-22T19:20:22.657Z,17.00
2017-09-22T19:22:50.845Z,17.20
2017-09-22T19:25:19.030Z,17.20
2017-09-22T19:27:47.222Z,17.00
2017-09-22T19:30:15.423Z,16.80
2017-09-22T19:32:45.121Z,17.00
2017-09-22T19:35:13.365Z,17.00
2017-09-22T19:37:41.580Z,16.90
2017-09-22T19:40:09.788Z,17.00
2017-09-22T19:42:39.692Z,16.90
2017-09-22T19:45:08.667Z,17.00
2017-09-22T19:47:36.857Z,16.90
2017-09-22T19:50:05.819Z,16.80
2017-09-22T19:52:34.042Z,16.80
2017-09-22T19:55:03.456Z,16.80
2017-09-22T19:57:31.669Z,16.70
2017-09-22T19:59:59.901Z,16.70
2017-09-22T20:02:28.087Z,16.70
2017-09-22T20:04:56.264Z,16.70
2017-09-22T20:07:24.475Z,16.60
2017-09-22T20:09:52.677Z,16.60
2017-09-22T20:12:21.707Z,16.50
2017-09-22T20:14:49.915Z,16.50
2017-09-22T20:17:18.113Z,16.40
2017-09-22T20:19:47.072Z,16.10
2017-09-22T20:22:15.267Z,16.10
2017-09-22T20:24:43.457Z,15.80
2017-09-22T20:27:13.443Z,15.90
2017-09-22T20:29:41.624Z,15.90
2017-09-22T20:32:09.823Z,16.00
2017-09-22T20:34:38.795Z,15.50
2017-09-22T20:37:06.991Z,15.50
2017-09-22T20:39:35.928Z,15.60
2017-09-22T20:42:04.128Z,15.50
2017-09-22T20:44:32.326Z,15.70
2017-09-22T20:47:01.281Z,15.70
2017-09-22T20:49:29.453Z,15.70
2017-09-22T20:51:57.698Z,15.80
2017-09-22T20:54:25.923Z,15.90
2017-09-22T20:56:54.070Z,15.50
2017-09-22T20:59:22.274Z,15.30
2017-09-22T21:01:50.448Z,15.50
2017-09-22T21:04:19.456Z,15.40
2017-09-22T21:06:49.602Z,15.40
2017-09-22T21:09:17.797Z,15.40
2017-09-22T21:11:46.769Z,15.30
2017-09-22T21:14:14.942Z,15.30
2017-09-22T21:16:43.140Z,15.40
2017-09-22T21:19:11.330Z,15.40
2017-09-22T21:21:39.500Z,15.10
2017-09-22T21:24:07.923Z,15.10
2017-09-22T21:26:36.878Z,15.10
2017-09-22T21:29:05.079Z,15.10
2017-09-22T21:31:34.025Z,15.20
2017-09-22T21:34:02.235Z,15.20
2017-09-22T21:36:30.414Z,15.20
2017-09-22T21:38:58.601Z,15.00
2017-09-22T21:41:27.542Z,14.80
2017-09-22T21:43:55.737Z,14.70
2017-09-22T21:46:24.921Z,14.60
2017-09-22T21:48:53.088Z,14.90
2017-09-22T21:51:21.295Z,15.00
2017-09-22T21:53:49.465Z,15.20
2017-09-22T21:56:17.698Z,15.10
2017-09-22T21:58:45.917Z,15.00
2017-09-22T22:01:15.667Z,14.80
2017-09-22T22:03:49.510Z,14.90
2017-09-22T22:06:23.537Z,14.60
2017-09-22T22:09:06.565Z,14.80
2017-09-22T22:11:34.808Z,15.00
2017-09-22T22:14:03.025Z,15.00
2017-09-22T22:16:31.253Z,15.00
2017-09-22T22:18:59.469Z,14.90
2017-09-22T22:21:27.791Z,14.40
2017-09-22T22:23:56.962Z,14.60
2017-09-22T22:26:25.939Z,14.40
2017-09-22T22:28:54.184Z,14.40
2017-09-22T22:31:22.415Z,14.00
2017-09-22T22:33:51.409Z,14.30
2017-09-22T22:36:26.423Z,14.20
2017-09-22T22:38:54.647Z,14.20
2017-09-22T22:41:22.853Z,14.50
2017-09-22T22:43:51.063Z,13.80
2017-09-22T22:46:21.002Z,14.30
2017-09-22T22:48:49.210Z,14.30
2017-09-22T22:51:17.434Z,14.40
2017-09-22T22:53:46.402Z,14.50
2017-09-22T22:56:14.646Z,14.50
2017-09-22T22:58:42.912Z,14.50
2017-09-22T23:01:11.117Z,14.20
2017-09-22T23:03:39.345Z,14.20
2017-09-22T23:06:07.558Z,14.30
2017-09-22T23:08:35.826Z,14.30
2017-09-22T23:11:04.054Z,14.40
2017-09-22T23:13:33.042Z,14.30
2017-09-22T23:16:02.017Z,14.30
2017-09-22T23:18:30.226Z,14.30
2017-09-22T23:20:58.476Z,14.40
2017-09-22T23:23:27.465Z,14.30
2017-09-22T23:25:56.452Z,14.40
2017-09-22T23:28:25.437Z,14.50
2017-09-22T23:30:54.675Z,14.50
2017-09-22T23:33:22.886Z,14.60
2017-09-22T23:35:51.161Z,14.40
2017-09-22T23:38:19.363Z,14.20
2017-09-22T23:40:49.117Z,14.30
2017-09-22T23:43:17.338Z,14.30
2017-09-22T23:45:45.535Z,14.10
2017-09-22T23:48:14.526Z,14.10
2017-09-22T23:50:43.514Z,14.00
2017-09-22T23:53:11.746Z,14.00
2017-09-22T23:55:39.954Z,14.20
2017-09-22T23:58:08.170Z,14.40
